sensor_id;sensor_type;location;lat;lon;timestamp;pressure;altitude;pressure_sealevel;temperature;humidity
52249;BME280;38541;48.130;8.378;2023-07-29T00:01:06;92522.19;;;15.44;80.94
52249;BME280;38541;48.130;8.378;2023-07-29T00:03:32;92517.47;;;15.40;81.55
52249;BME280;38541;48.130;8.378;2023-07-29T00:05:59;92518.56;;;15.39;81.64
52249;BME280;38541;48.130;8.378;2023-07-29T00:08:26;92517.59;;;15.35;81.38
52249;BME280;38541;48.130;8.378;2023-07-29T00:10:52;92516.16;;;15.29;81.16
52249;BME280;38541;48.130;8.378;2023-07-29T00:13:19;92517.72;;;15.30;81.35
52249;BME280;38541;48.130;8.378;2023-07-29T00:15:47;92514.88;;;15.26;81.50
52249;BME280;38541;48.130;8.378;2023-07-29T00:18:14;92511.34;;;15.17;81.58
52249;BME280;38541;48.130;8.378;2023-07-29T00:20:40;92516.72;;;15.12;81.89
52249;BME280;38541;48.130;8.378;2023-07-29T00:23:07;92509.09;;;15.10;81.87
52249;BME280;38541;48.130;8.378;2023-07-29T00:25:34;92495.88;;;15.10;82.22
52249;BME280;38541;48.130;8.378;2023-07-29T00:28:00;92499.13;;;15.07;82.42
52249;BME280;38541;48.130;8.378;2023-07-29T00:30:26;92488.63;;;15.02;82.47
52249;BME280;38541;48.130;8.378;2023-07-29T00:32:53;92494.50;;;14.99;82.50
52249;BME280;38541;48.130;8.378;2023-07-29T00:35:20;92481.38;;;14.94;82.53
52249;BME280;38541;48.130;8.378;2023-07-29T00:37:46;92480.69;;;14.88;82.68
52249;BME280;38541;48.130;8.378;2023-07-29T00:40:19;92481.97;;;14.91;82.79
52249;BME280;38541;48.130;8.378;2023-07-29T00:42:47;92489.91;;;14.91;82.66
52249;BME280;38541;48.130;8.378;2023-07-29T00:45:13;92483.06;;;14.90;81.94
52249;BME280;38541;48.130;8.378;2023-07-29T00:47:41;92492.16;;;14.83;81.53
52249;BME280;38541;48.130;8.378;2023-07-29T00:50:11;92485.50;;;14.72;80.74
52249;BME280;38541;48.130;8.378;2023-07-29T00:52:38;92493.31;;;14.63;81.21
52249;BME280;38541;48.130;8.378;2023-07-29T00:55:05;92494.19;;;14.59;82.10
52249;BME280;38541;48.130;8.378;2023-07-29T00:57:33;92497.63;;;14.59;82.38
52249;BME280;38541;48.130;8.378;2023-07-29T01:00:00;92483.88;;;14.57;82.45
52249;BME280;38541;48.130;8.378;2023-07-29T01:02:27;92483.88;;;14.57;83.02
52249;BME280;38541;48.130;8.378;2023-07-29T01:04:57;92489.38;;;14.61;83.29
52249;BME280;38541;48.130;8.378;2023-07-29T01:13:31;92472.44;;;14.62;81.97
52249;BME280;38541;48.130;8.378;2023-07-29T01:16:03;92478.22;;;14.64;81.79
52249;BME280;38541;48.130;8.378;2023-07-29T01:18:36;92465.31;;;14.62;81.49
52249;BME280;38541;48.130;8.378;2023-07-29T01:21:04;92464.63;;;14.57;81.49
52249;BME280;38541;48.130;8.378;2023-07-29T01:23:36;92468.03;;;14.57;81.04
52249;BME280;38541;48.130;8.378;2023-07-29T01:26:04;92467.53;;;14.55;80.72
52249;BME280;38541;48.130;8.378;2023-07-29T01:28:32;92468.44;;;14.50;80.89
52249;BME280;38541;48.130;8.378;2023-07-29T01:31:23;92464.31;;;14.44;80.24
52249;BME280;38541;48.130;8.378;2023-07-29T01:33:57;92464.63;;;14.43;80.68
52249;BME280;38541;48.130;8.378;2023-07-29T01:36:28;92468.63;;;14.40;80.77
52249;BME280;38541;48.130;8.378;2023-07-29T01:38:56;92471.84;;;14.37;80.35
52249;BME280;38541;48.130;8.378;2023-07-29T01:41:24;92468.22;;;14.33;80.47
52249;BME280;38541;48.130;8.378;2023-07-29T01:43:52;92478.00;;;14.32;80.79
52249;BME280;38541;48.130;8.378;2023-07-29T01:46:19;92468.50;;;14.31;80.49
52249;BME280;38541;48.130;8.378;2023-07-29T01:48:47;92461.94;;;14.29;80.47
52249;BME280;38541;48.130;8.378;2023-07-29T01:51:13;92462.25;;;14.27;80.55
52249;BME280;38541;48.130;8.378;2023-07-29T01:53:40;92468.38;;;14.22;80.44
52249;BME280;38541;48.130;8.378;2023-07-29T01:56:07;92465.25;;;14.20;80.80
52249;BME280;38541;48.130;8.378;2023-07-29T01:58:36;92460.56;;;14.17;80.86
52249;BME280;38541;48.130;8.378;2023-07-29T02:01:03;92459.75;;;14.17;81.03
52249;BME280;38541;48.130;8.378;2023-07-29T02:03:29;92459.00;;;14.16;81.49
52249;BME280;38541;48.130;8.378;2023-07-29T02:05:56;92458.19;;;14.16;81.20
52249;BME280;38541;48.130;8.378;2023-07-29T02:08:22;92449.00;;;14.13;80.83
52249;BME280;38541;48.130;8.378;2023-07-29T02:10:49;92447.44;;;14.12;80.98
52249;BME280;38541;48.130;8.378;2023-07-29T02:13:16;92453.72;;;14.16;81.05
52249;BME280;38541;48.130;8.378;2023-07-29T02:15:42;92449.41;;;14.20;81.26
52249;BME280;38541;48.130;8.378;2023-07-29T02:18:09;92450.47;;;14.19;81.00
52249;BME280;38541;48.130;8.378;2023-07-29T02:20:35;92459.00;;;14.16;80.86
52249;BME280;38541;48.130;8.378;2023-07-29T02:23:02;92455.88;;;14.14;81.10
52249;BME280;38541;48.130;8.378;2023-07-29T02:25:29;92467.41;;;14.18;81.27
52249;BME280;38541;48.130;8.378;2023-07-29T02:27:55;92456.03;;;14.18;80.75
52249;BME280;38541;48.130;8.378;2023-07-29T02:30:22;92452.72;;;14.12;80.60
52249;BME280;38541;48.130;8.378;2023-07-29T02:32:49;92461.16;;;14.14;80.34
52249;BME280;38541;48.130;8.378;2023-07-29T02:35:15;92470.53;;;14.20;80.68
52249;BME280;38541;48.130;8.378;2023-07-29T02:37:42;92471.72;;;14.14;79.84
52249;BME280;38541;48.130;8.378;2023-07-29T02:40:09;92459.06;;;14.11;79.73
52249;BME280;38541;48.130;8.378;2023-07-29T02:42:35;92454.94;;;14.05;80.26
52249;BME280;38541;48.130;8.378;2023-07-29T02:45:02;92454.09;;;14.09;80.95
52249;BME280;38541;48.130;8.378;2023-07-29T02:47:29;92456.41;;;14.11;81.17
52249;BME280;38541;48.130;8.378;2023-07-29T02:49:56;92465.63;;;14.13;81.01
52249;BME280;38541;48.130;8.378;2023-07-29T02:52:23;92452.16;;;14.15;80.71
52249;BME280;38541;48.130;8.378;2023-07-29T02:54:49;92449.78;;;14.13;81.52
52249;BME280;38541;48.130;8.378;2023-07-29T02:57:16;92454.47;;;14.17;81.44
52249;BME280;38541;48.130;8.378;2023-07-29T02:59:43;92454.78;;;14.15;81.41
52249;BME280;38541;48.130;8.378;2023-07-29T03:02:10;92453.00;;;14.10;81.20
52249;BME280;38541;48.130;8.378;2023-07-29T03:04:36;92447.94;;;14.14;81.61
52249;BME280;38541;48.130;8.378;2023-07-29T03:07:03;92448.13;;;14.18;81.59
52249;BME280;38541;48.130;8.378;2023-07-29T03:09:30;92445.91;;;14.25;82.15
52249;BME280;38541;48.130;8.378;2023-07-29T03:11:56;92440.78;;;14.29;81.67
52249;BME280;38541;48.130;8.378;2023-07-29T03:14:23;92432.59;;;14.30;81.88
52249;BME280;38541;48.130;8.378;2023-07-29T03:16:49;92427.59;;;14.29;81.64
52249;BME280;38541;48.130;8.378;2023-07-29T03:19:16;92424.44;;;14.26;81.61
52249;BME280;38541;48.130;8.378;2023-07-29T03:21:43;92426.91;;;14.23;81.69
52249;BME280;38541;48.130;8.378;2023-07-29T03:24:09;92428.47;;;14.24;81.97
52249;BME280;38541;48.130;8.378;2023-07-29T03:26:36;92419.84;;;14.18;81.82
52249;BME280;38541;48.130;8.378;2023-07-29T03:29:03;92420.44;;;14.15;81.98
52249;BME280;38541;48.130;8.378;2023-07-29T03:31:29;92413.78;;;14.18;82.11
52249;BME280;38541;48.130;8.378;2023-07-29T03:33:56;92416.13;;;14.19;82.46
52249;BME280;38541;48.130;8.378;2023-07-29T03:36:22;92411.34;;;14.21;82.03
52249;BME280;38541;48.130;8.378;2023-07-29T03:38:51;92415.81;;;14.21;81.90
52249;BME280;38541;48.130;8.378;2023-07-29T03:41:18;92412.50;;;14.15;81.48
52249;BME280;38541;48.130;8.378;2023-07-29T03:43:44;92410.47;;;14.12;81.59
52249;BME280;38541;48.130;8.378;2023-07-29T03:46:11;92423.16;;;14.10;81.84
52249;BME280;38541;48.130;8.378;2023-07-29T03:48:39;92418.38;;;14.12;81.95
52249;BME280;38541;48.130;8.378;2023-07-29T03:51:05;92419.38;;;14.16;82.02
52249;BME280;38541;48.130;8.378;2023-07-29T03:53:32;92417.41;;;14.22;82.29
52249;BME280;38541;48.130;8.378;2023-07-29T03:55:58;92411.34;;;14.21;82.88
52249;BME280;38541;48.130;8.378;2023-07-29T03:58:25;92411.63;;;14.20;82.85
52249;BME280;38541;48.130;8.378;2023-07-29T04:00:52;92410.84;;;14.19;82.33
52249;BME280;38541;48.130;8.378;2023-07-29T04:03:19;92422.50;;;14.18;82.31
52249;BME280;38541;48.130;8.378;2023-07-29T04:05:47;92422.50;;;14.18;81.94
52249;BME280;38541;48.130;8.378;2023-07-29T04:08:13;92422.00;;;14.16;82.31
52249;BME280;38541;48.130;8.378;2023-07-29T04:10:40;92422.19;;;14.20;82.23
52249;BME280;38541;48.130;8.378;2023-07-29T04:13:06;92418.19;;;14.22;82.43
52249;BME280;38541;48.130;8.378;2023-07-29T04:15:33;92416.84;;;14.25;82.45
52249;BME280;38541;48.130;8.378;2023-07-29T04:17:59;92424.28;;;14.23;82.35
52249;BME280;38541;48.130;8.378;2023-07-29T04:20:26;92423.47;;;14.22;82.33
52249;BME280;38541;48.130;8.378;2023-07-29T04:22:53;92429.25;;;14.24;82.11
52249;BME280;38541;48.130;8.378;2023-07-29T04:25:19;92425.63;;;14.20;82.31
52249;BME280;38541;48.130;8.378;2023-07-29T04:27:46;92425.63;;;14.20;82.30
52249;BME280;38541;48.130;8.378;2023-07-29T04:30:12;92426.13;;;14.22;82.52
52249;BME280;38541;48.130;8.378;2023-07-29T04:32:39;92419.00;;;14.23;82.36
52249;BME280;38541;48.130;8.378;2023-07-29T04:35:07;92412.63;;;14.24;82.50
52249;BME280;38541;48.130;8.378;2023-07-29T04:37:35;92426.81;;;14.28;82.31
52249;BME280;38541;48.130;8.378;2023-07-29T04:40:02;92416.84;;;14.25;82.47
52249;BME280;38541;48.130;8.378;2023-07-29T04:42:29;92429.25;;;14.24;82.07
52249;BME280;38541;48.130;8.378;2023-07-29T04:44:55;92421.81;;;14.26;82.31
52249;BME280;38541;48.130;8.378;2023-07-29T04:47:22;92432.59;;;14.30;82.34
52249;BME280;38541;48.130;8.378;2023-07-29T04:49:50;92431.91;;;14.38;82.43
52249;BME280;38541;48.130;8.378;2023-07-29T04:52:16;92434.53;;;14.38;81.83
52249;BME280;38541;48.130;8.378;2023-07-29T04:54:45;92435.34;;;14.39;81.54
52249;BME280;38541;48.130;8.378;2023-07-29T04:57:11;92429.94;;;14.44;81.71
52249;BME280;38541;48.130;8.378;2023-07-29T04:59:38;92442.97;;;14.54;81.76
52249;BME280;38541;48.130;8.378;2023-07-29T05:02:05;92442.00;;;14.64;81.87
52249;BME280;38541;48.130;8.378;2023-07-29T05:04:31;92449.56;;;14.71;81.78
52249;BME280;38541;48.130;8.378;2023-07-29T05:06:58;92450.81;;;14.74;81.62
52249;BME280;38541;48.130;8.378;2023-07-29T05:09:24;92452.59;;;14.78;81.10
52249;BME280;38541;48.130;8.378;2023-07-29T05:11:53;92452.31;;;14.80;80.91
52249;BME280;38541;48.130;8.378;2023-07-29T05:14:20;92456.53;;;14.81;81.46
52249;BME280;38541;48.130;8.378;2023-07-29T05:16:47;92453.56;;;14.82;81.69
52249;BME280;38541;48.130;8.378;2023-07-29T05:19:14;92448.47;;;14.86;82.01
52249;BME280;38541;48.130;8.378;2023-07-29T05:21:40;92451.81;;;14.92;82.35
52249;BME280;38541;48.130;8.378;2023-07-29T05:24:07;92449.53;;;14.99;82.07
52249;BME280;38541;48.130;8.378;2023-07-29T05:26:34;92442.47;;;15.08;82.03
52249;BME280;38541;48.130;8.378;2023-07-29T05:29:01;92445.50;;;15.16;82.16
52249;BME280;38541;48.130;8.378;2023-07-29T05:31:28;92441.97;;;15.20;82.39
52249;BME280;38541;48.130;8.378;2023-07-29T05:33:55;92434.69;;;15.26;82.56
52249;BME280;38541;48.130;8.378;2023-07-29T05:36:22;92433.50;;;15.32;82.65
52249;BME280;38541;48.130;8.378;2023-07-29T05:38:50;92426.38;;;15.41;83.18
52249;BME280;38541;48.130;8.378;2023-07-29T05:41:17;92398.13;;;15.51;82.95
52249;BME280;38541;48.130;8.378;2023-07-29T05:43:44;92403.16;;;15.61;83.29
52249;BME280;38541;48.130;8.378;2023-07-29T05:46:11;92405.44;;;15.77;83.29
52249;BME280;38541;48.130;8.378;2023-07-29T05:48:38;92409.13;;;15.90;83.33
52249;BME280;38541;48.130;8.378;2023-07-29T05:51:04;92410.75;;;16.00;83.66
52249;BME280;38541;48.130;8.378;2023-07-29T05:53:34;92415.16;;;16.04;84.13
52249;BME280;38541;48.130;8.378;2023-07-29T05:56:01;92416.47;;;16.16;83.77
52249;BME280;38541;48.130;8.378;2023-07-29T05:58:27;92425.75;;;16.36;83.57
52249;BME280;38541;48.130;8.378;2023-07-29T06:00:54;92433.72;;;16.45;82.98
52249;BME280;38541;48.130;8.378;2023-07-29T06:03:21;92428.28;;;16.41;83.58
52249;BME280;38541;48.130;8.378;2023-07-29T06:05:50;92444.78;;;16.38;84.32
52249;BME280;38541;48.130;8.378;2023-07-29T06:08:20;92438.88;;;16.41;84.78
52249;BME280;38541;48.130;8.378;2023-07-29T06:10:46;92428.59;;;16.48;85.82
52249;BME280;38541;48.130;8.378;2023-07-29T06:13:13;92439.91;;;16.63;86.78
52249;BME280;38541;48.130;8.378;2023-07-29T06:15:39;92441.50;;;16.81;87.40
52249;BME280;38541;48.130;8.378;2023-07-29T06:18:06;92446.91;;;16.99;87.29
52249;BME280;38541;48.130;8.378;2023-07-29T06:20:32;92445.81;;;17.09;87.45
52249;BME280;38541;48.130;8.378;2023-07-29T06:22:59;92449.88;;;17.15;87.95
52249;BME280;38541;48.130;8.378;2023-07-29T06:25:26;92456.28;;;17.23;88.21
52249;BME280;38541;48.130;8.378;2023-07-29T06:27:52;92455.97;;;17.33;88.36
52249;BME280;38541;48.130;8.378;2023-07-29T06:30:19;92461.00;;;17.44;88.19
52249;BME280;38541;48.130;8.378;2023-07-29T06:32:45;92470.53;;;17.53;87.77
52249;BME280;38541;48.130;8.378;2023-07-29T06:35:12;92466.16;;;17.58;87.62
52249;BME280;38541;48.130;8.378;2023-07-29T06:37:38;92457.09;;;17.59;87.31
52249;BME280;38541;48.130;8.378;2023-07-29T06:40:05;92452.56;;;17.59;87.56
52249;BME280;38541;48.130;8.378;2023-07-29T06:42:32;92458.81;;;17.63;87.34
52249;BME280;38541;48.130;8.378;2023-07-29T06:44:58;92464.31;;;17.67;87.40
52249;BME280;38541;48.130;8.378;2023-07-29T06:47:25;92461.78;;;17.71;87.49
52249;BME280;38541;48.130;8.378;2023-07-29T06:49:53;92451.31;;;17.74;87.61
52249;BME280;38541;48.130;8.378;2023-07-29T06:52:20;92448.50;;;17.71;86.56
52249;BME280;38541;48.130;8.378;2023-07-29T06:54:46;92447.88;;;17.74;87.07
52249;BME280;38541;48.130;8.378;2023-07-29T06:57:13;92454.13;;;17.78;86.62
52249;BME280;38541;48.130;8.378;2023-07-29T06:59:39;92446.63;;;17.80;86.72
52249;BME280;38541;48.130;8.378;2023-07-29T07:02:06;92431.16;;;17.82;86.89
52249;BME280;38541;48.130;8.378;2023-07-29T07:04:33;92445.06;;;17.79;87.11
52249;BME280;38541;48.130;8.378;2023-07-29T07:06:59;92483.19;;;17.65;88.32
52249;BME280;38541;48.130;8.378;2023-07-29T07:09:26;92434.44;;;17.44;100.00
52249;BME280;38541;48.130;8.378;2023-07-29T07:11:52;92442.41;;;17.35;100.00
52249;BME280;38541;48.130;8.378;2023-07-29T07:14:19;92456.91;;;17.20;100.00
52249;BME280;38541;48.130;8.378;2023-07-29T07:16:45;92483.91;;;17.13;100.00
52249;BME280;38541;48.130;8.378;2023-07-29T07:19:12;92490.00;;;17.14;100.00
52249;BME280;38541;48.130;8.378;2023-07-29T07:21:38;92494.38;;;17.09;100.00
52249;BME280;38541;48.130;8.378;2023-07-29T07:24:05;92486.56;;;17.04;100.00
52249;BME280;38541;48.130;8.378;2023-07-29T07:26:31;92486.09;;;17.02;100.00
52249;BME280;38541;48.130;8.378;2023-07-29T07:28:58;92478.78;;;17.17;100.00
52249;BME280;38541;48.130;8.378;2023-07-29T07:31:24;92468.97;;;17.44;100.00
52249;BME280;38541;48.130;8.378;2023-07-29T07:33:51;92475.38;;;17.60;100.00
52249;BME280;38541;48.130;8.378;2023-07-29T07:36:17;92468.19;;;17.78;100.00
52249;BME280;38541;48.130;8.378;2023-07-29T07:38:44;92457.88;;;17.86;98.63
52249;BME280;38541;48.130;8.378;2023-07-29T07:41:10;92453.31;;;17.95;93.48
52249;BME280;38541;48.130;8.378;2023-07-29T07:43:37;92455.53;;;18.02;88.96
52249;BME280;38541;48.130;8.378;2023-07-29T07:46:05;92460.06;;;18.01;88.14
52249;BME280;38541;48.130;8.378;2023-07-29T07:48:31;92472.28;;;18.02;86.92
52249;BME280;38541;48.130;8.378;2023-07-29T07:50:59;92478.50;;;17.97;86.33
52249;BME280;38541;48.130;8.378;2023-07-29T07:53:26;92468.50;;;17.94;86.26
52249;BME280;38541;48.130;8.378;2023-07-29T07:55:52;92474.59;;;17.95;85.83
52249;BME280;38541;48.130;8.378;2023-07-29T07:58:19;92481.63;;;18.00;86.18
52249;BME280;38541;48.130;8.378;2023-07-29T08:00:45;92478.81;;;18.05;84.64
52249;BME280;38541;48.130;8.378;2023-07-29T08:03:12;92471.91;;;18.21;85.15
52249;BME280;38541;48.130;8.378;2023-07-29T08:05:38;92470.66;;;18.28;85.08
52249;BME280;38541;48.130;8.378;2023-07-29T08:08:05;92467.38;;;18.31;84.04
52249;BME280;38541;48.130;8.378;2023-07-29T08:10:31;92462.00;;;18.48;84.71
52249;BME280;38541;48.130;8.378;2023-07-29T08:12:58;92482.75;;;18.64;84.45
52249;BME280;38541;48.130;8.378;2023-07-29T08:15:25;92473.50;;;18.70;81.50
52249;BME280;38541;48.130;8.378;2023-07-29T08:17:51;92477.50;;;18.85;82.26
52249;BME280;38541;48.130;8.378;2023-07-29T08:20:18;92479.34;;;19.02;81.20
52249;BME280;38541;48.130;8.378;2023-07-29T08:22:44;92466.63;;;19.08;83.06
52249;BME280;38541;48.130;8.378;2023-07-29T08:25:11;92478.84;;;19.09;82.13
52249;BME280;38541;48.130;8.378;2023-07-29T08:27:37;92477.47;;;19.03;80.34
52249;BME280;38541;48.130;8.378;2023-07-29T08:30:04;92485.66;;;19.19;80.48
52249;BME280;38541;48.130;8.378;2023-07-29T08:32:31;92494.53;;;19.32;79.38
52249;BME280;38541;48.130;8.378;2023-07-29T08:34:58;92482.06;;;19.23;79.10
52249;BME280;38541;48.130;8.378;2023-07-29T08:37:24;92476.47;;;19.16;77.46
52249;BME280;38541;48.130;8.378;2023-07-29T08:39:51;92483.50;;;19.12;76.87
52249;BME280;38541;48.130;8.378;2023-07-29T08:42:20;92472.31;;;19.28;77.89
52249;BME280;38541;48.130;8.378;2023-07-29T08:44:51;92486.72;;;19.27;78.63
52249;BME280;38541;48.130;8.378;2023-07-29T08:47:20;92486.41;;;19.28;78.25
52249;BME280;38541;48.130;8.378;2023-07-29T08:49:47;92488.38;;;19.40;78.73
52249;BME280;38541;48.130;8.378;2023-07-29T08:52:18;92484.84;;;19.27;78.33
52249;BME280;38541;48.130;8.378;2023-07-29T08:54:44;92497.56;;;19.21;78.43
52249;BME280;38541;48.130;8.378;2023-07-29T08:57:11;92490.94;;;19.28;79.30
52249;BME280;38541;48.130;8.378;2023-07-29T08:59:39;92487.38;;;19.23;78.09
52249;BME280;38541;48.130;8.378;2023-07-29T09:02:06;92486.31;;;19.16;78.56
52249;BME280;38541;48.130;8.378;2023-07-29T09:04:33;92499.53;;;19.03;78.96
52249;BME280;38541;48.130;8.378;2023-07-29T09:07:00;92504.09;;;18.94;77.89
52249;BME280;38541;48.130;8.378;2023-07-29T09:09:26;92522.88;;;18.98;78.34
52249;BME280;38541;48.130;8.378;2023-07-29T09:11:53;92520.53;;;18.96;76.81
52249;BME280;38541;48.130;8.378;2023-07-29T09:14:20;92527.63;;;19.22;76.67
52249;BME280;38541;48.130;8.378;2023-07-29T09:16:46;92517.69;;;19.40;76.59
52249;BME280;38541;48.130;8.378;2023-07-29T09:19:13;92525.16;;;19.47;74.40
52249;BME280;38541;48.130;8.378;2023-07-29T09:21:40;92525.53;;;19.36;74.82
52249;BME280;38541;48.130;8.378;2023-07-29T09:24:07;92508.72;;;19.45;75.12
52249;BME280;38541;48.130;8.378;2023-07-29T09:26:34;92517.53;;;19.66;74.39
52249;BME280;38541;48.130;8.378;2023-07-29T09:29:02;92511.72;;;19.64;73.67
52249;BME280;38541;48.130;8.378;2023-07-29T09:31:29;92502.69;;;19.78;73.31
52249;BME280;38541;48.130;8.378;2023-07-29T09:34:00;92526.41;;;20.01;72.67
52249;BME280;38541;48.130;8.378;2023-07-29T09:36:28;92513.72;;;19.89;72.36
52249;BME280;38541;48.130;8.378;2023-07-29T09:38:57;92514.84;;;19.66;71.32
52249;BME280;38541;48.130;8.378;2023-07-29T09:41:24;92523.97;;;19.65;71.29
52249;BME280;38541;48.130;8.378;2023-07-29T09:43:56;92508.06;;;19.69;73.11
52249;BME280;38541;48.130;8.378;2023-07-29T09:46:25;92518.91;;;19.94;73.56
52249;BME280;38541;48.130;8.378;2023-07-29T09:48:54;92507.38;;;19.81;71.23
52249;BME280;38541;48.130;8.378;2023-07-29T09:51:23;92508.44;;;20.10;71.57
52249;BME280;38541;48.130;8.378;2023-07-29T09:53:51;92517.66;;;20.46;71.50
52249;BME280;38541;48.130;8.378;2023-07-29T09:56:24;92522.56;;;20.44;67.85
52249;BME280;38541;48.130;8.378;2023-07-29T09:58:52;92519.53;;;20.33;67.12
52249;BME280;38541;48.130;8.378;2023-07-29T10:01:18;92498.66;;;20.48;68.09
52249;BME280;38541;48.130;8.378;2023-07-29T10:03:45;92516.25;;;20.49;67.41
52249;BME280;38541;48.130;8.378;2023-07-29T10:06:14;92511.22;;;20.47;67.31
52249;BME280;38541;48.130;8.378;2023-07-29T10:08:40;92522.69;;;20.60;66.03
52249;BME280;38541;48.130;8.378;2023-07-29T10:11:10;92501.97;;;20.45;66.74
52249;BME280;38541;48.130;8.378;2023-07-29T10:13:38;92518.69;;;20.54;67.32
52249;BME280;38541;48.130;8.378;2023-07-29T10:16:05;92494.09;;;20.48;67.12
52249;BME280;38541;48.130;8.378;2023-07-29T10:18:33;92493.03;;;20.62;67.02
52249;BME280;38541;48.130;8.378;2023-07-29T10:21:01;92509.31;;;20.81;65.94
52249;BME280;38541;48.130;8.378;2023-07-29T10:23:32;92514.66;;;20.81;64.35
52249;BME280;38541;48.130;8.378;2023-07-29T10:26:10;92488.88;;;20.98;65.62
52249;BME280;38541;48.130;8.378;2023-07-29T10:28:41;92515.91;;;21.21;64.22
52249;BME280;38541;48.130;8.378;2023-07-29T10:31:09;92507.53;;;21.10;62.52
52249;BME280;38541;48.130;8.378;2023-07-29T10:33:37;92505.78;;;21.27;62.07
52249;BME280;38541;48.130;8.378;2023-07-29T10:36:05;92502.66;;;21.37;63.96
52249;BME280;38541;48.130;8.378;2023-07-29T10:38:31;92508.44;;;21.27;61.33
52249;BME280;38541;48.130;8.378;2023-07-29T10:40:58;92506.31;;;21.45;62.94
52249;BME280;38541;48.130;8.378;2023-07-29T10:43:33;92514.66;;;21.44;62.25
52249;BME280;38541;48.130;8.378;2023-07-29T10:46:19;92511.00;;;21.48;61.61
52249;BME280;38541;48.130;8.378;2023-07-29T10:54:02;92512.66;;;21.53;58.94
52249;BME280;38541;48.130;8.378;2023-07-29T10:56:36;92504.31;;;21.67;58.73
52249;BME280;38541;48.130;8.378;2023-07-29T10:59:32;92488.59;;;22.06;58.20
52249;BME280;38541;48.130;8.378;2023-07-29T11:02:00;92496.81;;;22.14;55.95
52249;BME280;38541;48.130;8.378;2023-07-29T11:04:28;92491.41;;;21.98;58.11
52249;BME280;38541;48.130;8.378;2023-07-29T11:17:42;92490.41;;;22.59;57.23
52249;BME280;38541;48.130;8.378;2023-07-29T11:20:10;92503.69;;;22.56;56.29
52249;BME280;38541;48.130;8.378;2023-07-29T11:22:37;92497.47;;;22.51;57.06
52249;BME280;38541;48.130;8.378;2023-07-29T11:25:06;92504.00;;;21.97;55.38
52249;BME280;38541;48.130;8.378;2023-07-29T11:27:33;92502.09;;;22.10;56.01
52249;BME280;38541;48.130;8.378;2023-07-29T11:30:02;92498.84;;;22.61;56.89
52249;BME280;38541;48.130;8.378;2023-07-29T11:32:29;92502.16;;;23.03;54.12
52249;BME280;38541;48.130;8.378;2023-07-29T11:34:56;92510.38;;;22.94;54.43
52249;BME280;38541;48.130;8.378;2023-07-29T11:37:22;92494.91;;;22.87;53.61
52249;BME280;38541;48.130;8.378;2023-07-29T11:39:49;92498.06;;;22.61;54.10
52249;BME280;38541;48.130;8.378;2023-07-29T11:42:15;92489.88;;;22.54;55.31
52249;BME280;38541;48.130;8.378;2023-07-29T11:44:42;92480.28;;;22.52;55.33
52249;BME280;38541;48.130;8.378;2023-07-29T11:47:10;92489.22;;;22.89;55.15
52249;BME280;38541;48.130;8.378;2023-07-29T11:49:41;92477.69;;;22.72;55.47
52249;BME280;38541;48.130;8.378;2023-07-29T11:52:08;92484.38;;;22.94;55.25
52249;BME280;38541;48.130;8.378;2023-07-29T11:54:37;92479.00;;;23.11;54.54
52249;BME280;38541;48.130;8.378;2023-07-29T11:57:08;92474.34;;;23.07;54.84
52249;BME280;38541;48.130;8.378;2023-07-29T11:59:36;92470.78;;;22.87;55.11
52249;BME280;38541;48.130;8.378;2023-07-29T12:02:10;92466.13;;;22.68;55.74
52249;BME280;38541;48.130;8.378;2023-07-29T12:04:38;92482.38;;;22.59;55.52
52249;BME280;38541;48.130;8.378;2023-07-29T12:07:06;92477.69;;;22.56;55.75
52249;BME280;38541;48.130;8.378;2023-07-29T12:09:34;92482.94;;;22.52;55.20
52249;BME280;38541;48.130;8.378;2023-07-29T12:12:05;92492.34;;;22.46;54.38
52249;BME280;38541;48.130;8.378;2023-07-29T12:14:32;92485.59;;;22.36;54.67
52249;BME280;38541;48.130;8.378;2023-07-29T12:17:01;92481.50;;;22.87;55.09
52249;BME280;38541;48.130;8.378;2023-07-29T12:19:36;92479.50;;;23.16;54.93
52249;BME280;38541;48.130;8.378;2023-07-29T12:22:05;92475.09;;;23.24;54.16
52249;BME280;38541;48.130;8.378;2023-07-29T12:24:33;92477.97;;;23.31;53.91
52249;BME280;38541;48.130;8.378;2023-07-29T12:27:00;92465.44;;;23.55;53.84
52249;BME280;38541;48.130;8.378;2023-07-29T12:29:27;92483.97;;;23.60;52.73
52249;BME280;38541;48.130;8.378;2023-07-29T12:31:59;92475.28;;;23.31;52.93
52249;BME280;38541;48.130;8.378;2023-07-29T12:34:29;92464.56;;;23.31;53.21
52249;BME280;38541;48.130;8.378;2023-07-29T12:36:58;92479.94;;;23.02;51.97
52249;BME280;38541;48.130;8.378;2023-07-29T12:39:27;92473.09;;;23.37;53.72
52249;BME280;38541;48.130;8.378;2023-07-29T12:41:55;92473.03;;;23.69;52.93
52249;BME280;38541;48.130;8.378;2023-07-29T12:44:23;92467.44;;;23.78;51.94
52249;BME280;38541;48.130;8.378;2023-07-29T12:46:49;92467.03;;;23.96;51.68
52249;BME280;38541;48.130;8.378;2023-07-29T12:49:16;92476.69;;;23.80;51.59
52249;BME280;38541;48.130;8.378;2023-07-29T12:51:43;92472.94;;;23.65;52.18
52249;BME280;38541;48.130;8.378;2023-07-29T12:54:10;92467.22;;;23.67;52.82
52249;BME280;38541;48.130;8.378;2023-07-29T12:56:36;92487.38;;;23.25;53.59
52249;BME280;38541;48.130;8.378;2023-07-29T12:59:05;92473.13;;;23.05;53.94
52249;BME280;38541;48.130;8.378;2023-07-29T13:01:31;92480.97;;;22.82;54.09
52249;BME280;38541;48.130;8.378;2023-07-29T13:03:58;92478.56;;;22.76;54.80
52249;BME280;38541;48.130;8.378;2023-07-29T13:06:24;92474.75;;;23.09;55.72
52249;BME280;38541;48.130;8.378;2023-07-29T13:08:51;92490.16;;;22.97;53.46
52249;BME280;38541;48.130;8.378;2023-07-29T13:11:18;92487.63;;;23.04;54.02
52249;BME280;38541;48.130;8.378;2023-07-29T13:13:44;92486.53;;;22.89;53.80
52249;BME280;38541;48.130;8.378;2023-07-29T13:16:12;92475.28;;;22.67;55.25
52249;BME280;38541;48.130;8.378;2023-07-29T13:18:39;92486.84;;;22.55;55.64
52249;BME280;38541;48.130;8.378;2023-07-29T13:21:06;92498.75;;;22.58;56.03
52249;BME280;38541;48.130;8.378;2023-07-29T13:23:33;92501.78;;;22.28;54.11